Time;durP1;ratioP1;P1;durP2;ratioP2;P2;SDS_P1;SDS_P2;PMS_P1;PMS_P2;Temp;Humidity;BMP_temperature;BMP_pressure;BME280_temperature;BME280_humidity;BME280_pressure;Samples;Min_cycle;Max_cycle;Signal;HPM_P1;HPM_P2
2022/03/03 00:02:01;;;;;;;17.67;11.53;;;2.00;98.50;;;;;;5091961;28;20204;-56
2022/03/03 00:04:28;;;;;;;17.77;11.97;;;2.00;98.50;;;;;;5092114;28;20201;-56
2022/03/03 00:06:55;;;;;;;19.13;12.27;;;2.00;98.50;;;;;;5092278;28;20204;-61
2022/03/03 00:09:21;;;;;;;18.67;12.53;;;1.90;98.60;;;;;;5092197;28;20224;-62
2022/03/03 00:11:48;;;;;;;16.87;12.30;;;1.90;98.60;;;;;;5091837;28;20204;-55
2022/03/03 00:14:15;;;;;;;16.07;12.37;;;1.90;98.50;;;;;;5092055;28;20224;-54
2022/03/03 00:16:43;;;;;;;19.30;12.13;;;2.00;98.40;;;;;;5092288;28;20266;-54
2022/03/03 00:19:09;;;;;;;18.27;12.60;;;2.10;98.30;;;;;;5092392;28;20236;-54
2022/03/03 00:21:36;;;;;;;16.83;12.43;;;2.10;98.20;;;;;;5092302;28;20204;-55
2022/03/03 00:24:03;;;;;;;21.90;11.67;;;2.20;98.20;;;;;;5092041;28;20204;-55
2022/03/03 00:26:30;;;;;;;18.20;12.27;;;2.20;98.20;;;;;;5091963;28;20618;-55
2022/03/03 00:28:56;;;;;;;20.63;12.60;;;2.20;98.20;;;;;;5092098;28;20235;-55
2022/03/03 00:31:23;;;;;;;18.67;12.17;;;2.20;98.10;;;;;;5092001;28;20212;-56
2022/03/03 00:33:51;;;;;;;16.67;11.97;;;2.10;98.20;;;;;;5092061;28;20316;-56
2022/03/03 00:36:18;;;;;;;16.13;12.10;;;2.00;98.30;;;;;;5091869;28;20212;-56
2022/03/03 00:38:45;;;;;;;16.70;12.30;;;2.00;98.30;;;;;;5091740;28;20270;-56
2022/03/03 00:41:11;;;;;;;16.93;11.27;;;2.10;98.20;;;;;;5093472;28;20645;-56
2022/03/03 00:43:38;;;;;;;17.63;12.63;;;2.10;98.10;;;;;;5095858;28;20207;-56
2022/03/03 00:46:05;;;;;;;17.00;12.50;;;2.10;98.30;;;;;;5096004;28;20200;-56
2022/03/03 00:48:31;;;;;;;13.70;11.20;;;2.00;98.40;;;;;;5095948;28;20236;-56
2022/03/03 00:51:00;;;;;;;16.00;11.30;;;1.90;98.60;;;;;;5095573;28;20231;-55
2022/03/03 00:53:26;;;;;;;16.40;11.77;;;1.80;99.00;;;;;;5095402;28;20888;-55
2022/03/03 00:55:53;;;;;;;17.37;12.20;;;1.50;99.30;;;;;;5095577;28;20258;-55
2022/03/03 00:58:20;;;;;;;15.07;11.33;;;1.50;99.80;;;;;;5095204;28;20228;-55
2022/03/03 01:00:46;;;;;;;17.77;13.33;;;1.60;99.80;;;;;;5095321;28;20208;-56
2022/03/03 01:03:13;;;;;;;19.40;12.80;;;1.60;99.80;;;;;;5095412;28;20257;-56
2022/03/03 01:05:40;;;;;;;19.57;13.50;;;1.70;99.80;;;;;;5095167;28;20668;-56
2022/03/03 01:08:10;;;;;;;17.07;11.53;;;1.60;99.90;;;;;;5095072;28;20761;-56
2022/03/03 01:10:37;;;;;;;17.07;12.63;;;1.50;99.90;;;;;;5095262;28;20204;-56
2022/03/03 01:13:04;;;;;;;16.87;12.53;;;1.50;99.90;;;;;;5095286;28;20257;-56
2022/03/03 01:15:31;;;;;;;17.23;12.30;;;1.60;99.90;;;;;;5095435;28;20228;-55
2022/03/03 01:17:57;;;;;;;18.20;12.67;;;1.60;99.90;;;;;;5095662;28;20653;-57
2022/03/03 01:20:24;;;;;;;18.17;11.93;;;1.60;99.90;;;;;;5095340;28;20261;-56
2022/03/03 01:22:51;;;;;;;18.53;12.10;;;1.70;99.90;;;;;;5094938;28;20345;-57
2022/03/03 01:25:19;;;;;;;15.57;12.37;;;1.70;99.90;;;;;;5095018;28;20699;-58
2022/03/03 01:27:45;;;;;;;16.40;11.10;;;1.70;99.90;;;;;;5094614;28;20224;-58
2022/03/03 01:30:13;;;;;;;17.20;11.77;;;1.70;99.90;;;;;;5094988;28;20216;-57
2022/03/03 01:32:40;;;;;;;16.57;11.83;;;1.70;99.90;;;;;;5094603;28;20628;-58
2022/03/03 01:35:07;;;;;;;16.20;11.53;;;1.60;99.80;;;;;;5094684;28;20224;-58
2022/03/03 01:37:34;;;;;;;16.50;11.47;;;1.60;99.60;;;;;;5094708;28;20204;-58
2022/03/03 01:40:00;;;;;;;17.43;11.83;;;1.50;99.50;;;;;;5094827;28;20219;-58
2022/03/03 01:42:28;;;;;;;17.67;12.10;;;1.50;99.60;;;;;;5094491;28;20250;-58
2022/03/03 01:44:55;;;;;;;15.67;11.07;;;1.50;99.70;;;;;;5094748;28;20200;-57
2022/03/03 01:47:23;;;;;;;18.40;12.67;;;1.40;99.90;;;;;;5094658;28;20208;-57
2022/03/03 01:49:52;;;;;;;18.37;11.87;;;1.40;99.90;;;;;;5094295;28;20291;-59
2022/03/03 01:52:18;;;;;;;17.10;12.27;;;1.30;99.80;;;;;;5093887;28;20628;-58
2022/03/03 01:54:45;;;;;;;17.93;12.27;;;1.20;99.90;;;;;;5094379;28;20227;-57
2022/03/03 01:57:13;;;;;;;16.13;12.00;;;1.20;99.90;;;;;;5094362;28;20416;-57
2022/03/03 01:59:41;;;;;;;19.67;12.30;;;1.10;99.90;;;;;;5094117;28;20293;-57
2022/03/03 02:02:10;;;;;;;16.67;12.10;;;1.00;99.90;;;;;;5094006;28;20501;-57
2022/03/03 02:04:38;;;;;;;15.80;11.70;;;1.00;99.90;;;;;;5094366;28;20207;-57
2022/03/03 02:07:05;;;;;;;17.37;12.10;;;1.10;99.90;;;;;;5094362;28;20243;-57
2022/03/03 02:09:31;;;;;;;15.97;11.90;;;1.00;99.90;;;;;;5094154;28;20220;-57
2022/03/03 02:11:58;;;;;;;19.73;11.97;;;1.00;99.90;;;;;;5093854;28;20231;-57
2022/03/03 02:14:25;;;;;;;18.83;12.20;;;1.00;99.90;;;;;;5093823;28;20223;-58
2022/03/03 02:16:53;;;;;;;15.07;11.13;;;0.90;99.90;;;;;;5093706;28;20589;-57
2022/03/03 02:19:21;;;;;;;19.13;12.03;;;0.90;99.90;;;;;;5093864;28;20599;-58
2022/03/03 02:21:52;;;;;;;17.40;11.97;;;0.90;99.90;;;;;;5093893;28;20208;-57
2022/03/03 02:24:20;;;;;;;19.13;11.67;;;0.80;99.90;;;;;;5094003;28;20265;-57
2022/03/03 02:26:47;;;;;;;15.67;11.37;;;0.90;99.90;;;;;;5093699;28;20570;-57
2022/03/03 02:29:15;;;;;;;18.03;11.90;;;0.90;99.90;;;;;;5093747;28;20765;-58
2022/03/03 02:31:44;;;;;;;16.77;11.97;;;0.80;99.90;;;;;;5093759;28;20215;-57
2022/03/03 02:34:11;;;;;;;20.40;12.90;;;0.70;99.90;;;;;;5093776;28;20226;-57
2022/03/03 02:36:37;;;;;;;17.83;12.20;;;0.70;99.90;;;;;;5093571;28;20200;-57
2022/03/03 02:39:06;;;;;;;17.43;11.97;;;0.70;99.90;;;;;;5093530;28;20228;-58
2022/03/03 02:41:34;;;;;;;20.17;13.27;;;0.80;99.90;;;;;;5093292;28;20212;-57
2022/03/03 02:44:02;;;;;;;20.77;12.33;;;0.80;99.90;;;;;;5093341;28;20239;-58
2022/03/03 02:46:28;;;;;;;17.53;12.10;;;0.90;99.90;;;;;;5093412;28;20236;-57
2022/03/03 02:48:55;;;;;;;17.30;11.97;;;0.90;99.90;;;;;;5093366;28;20223;-57
2022/03/03 02:51:22;;;;;;;16.80;12.47;;;0.90;99.90;;;;;;5093297;28;20204;-57
2022/03/03 02:53:49;;;;;;;17.03;12.00;;;0.90;99.90;;;;;;5093247;28;20208;-57
2022/03/03 02:56:17;;;;;;;19.47;13.13;;;0.90;99.90;;;;;;5093267;28;20681;-57
2022/03/03 02:58:43;;;;;;;18.27;12.43;;;0.90;99.90;;;;;;5093121;28;20243;-58
2022/03/03 03:01:10;;;;;;;15.97;11.50;;;1.00;99.90;;;;;;5093041;28;20200;-58
2022/03/03 03:03:38;;;;;;;18.90;12.47;;;1.00;99.90;;;;;;5092281;28;20261;-58
2022/03/03 03:06:05;;;;;;;15.30;11.03;;;0.90;99.90;;;;;;5093154;28;20564;-57
2022/03/03 03:08:31;;;;;;;17.37;11.57;;;0.90;99.90;;;;;;5093223;28;20228;-57
2022/03/03 03:10:58;;;;;;;16.20;12.23;;;0.90;99.90;;;;;;5092558;28;20200;-58
2022/03/03 03:13:26;;;;;;;16.33;11.60;;;0.80;99.90;;;;;;5093125;28;20208;-57
2022/03/03 03:15:54;;;;;;;18.43;11.77;;;0.70;99.90;;;;;;5092762;28;20270;-57
2022/03/03 03:18:22;;;;;;;18.83;11.87;;;0.50;99.90;;;;;;5093367;28;20240;-59
2022/03/03 03:20:50;;;;;;;21.27;15.90;;;0.40;99.90;;;;;;5092579;28;20207;-58
2022/03/03 03:23:19;;;;;;;18.53;11.43;;;0.40;99.90;;;;;;5092718;28;20204;-59
2022/03/03 03:25:47;;;;;;;18.67;12.53;;;0.20;99.90;;;;;;5092657;28;20204;-59
2022/03/03 03:28:15;;;;;;;17.20;11.80;;;0.20;99.90;;;;;;5092661;28;20227;-58
2022/03/03 03:30:43;;;;;;;17.97;13.57;;;0.00;99.90;;;;;;5092540;28;20257;-59
2022/03/03 03:33:10;;;;;;;29.87;17.10;;;-0.20;99.90;;;;;;5092834;28;20204;-59
2022/03/03 03:35:37;;;;;;;17.30;13.00;;;-0.20;99.90;;;;;;5092473;28;20642;-59
2022/03/03 03:38:04;;;;;;;20.30;13.97;;;-0.20;99.90;;;;;;5092285;28;20267;-59
2022/03/03 03:40:32;;;;;;;18.23;12.53;;;-0.20;99.90;;;;;;5092876;28;20215;-59
2022/03/03 03:42:58;;;;;;;15.50;11.10;;;-0.20;99.90;;;;;;5092485;28;20265;-59
2022/03/03 03:45:25;;;;;;;16.43;11.60;;;-0.20;99.90;;;;;;5092361;28;20208;-58
2022/03/03 03:47:53;;;;;;;18.13;12.30;;;-0.30;99.90;;;;;;5092227;28;20281;-59
2022/03/03 03:50:20;;;;;;;19.37;13.00;;;-0.30;99.90;;;;;;5092530;28;20587;-59
2022/03/03 03:52:47;;;;;;;22.13;12.33;;;-0.40;99.90;;;;;;5092154;28;20668;-58
2022/03/03 03:55:14;;;;;;;18.23;12.10;;;-0.50;99.90;;;;;;5092361;28;20373;-59
2022/03/03 03:57:41;;;;;;;15.70;11.63;;;-0.50;99.90;;;;;;5092517;28;20211;-59
2022/03/03 04:00:11;;;;;;;17.77;11.53;;;-0.40;99.90;;;;;;5092465;28;20208;-59
2022/03/03 04:02:37;;;;;;;16.13;12.17;;;-0.40;99.90;;;;;;5091982;28;20208;-58
2022/03/03 04:05:06;;;;;;;17.37;11.63;;;-0.40;99.90;;;;;;5092148;28;20205;-59
2022/03/03 04:07:33;;;;;;;20.73;12.47;;;-0.40;99.90;;;;;;5092266;28;20239;-59
2022/03/03 04:10:00;;;;;;;18.23;11.63;;;-0.40;99.90;;;;;;5092218;28;20204;-59
2022/03/03 04:12:26;;;;;;;18.63;12.33;;;-0.50;99.90;;;;;;5092119;28;20204;-59
2022/03/03 04:14:53;;;;;;;17.87;12.40;;;-0.60;99.90;;;;;;5093715;28;20219;-59
2022/03/03 04:17:20;;;;;;;15.87;12.03;;;-0.60;99.90;;;;;;5096105;28;20212;-59
2022/03/03 04:19:47;;;;;;;18.70;12.07;;;-0.70;99.90;;;;;;5095952;28;20231;-59
2022/03/03 04:22:15;;;;;;;17.17;11.57;;;-0.60;99.90;;;;;;5096413;28;20211;-59
2022/03/03 04:24:41;;;;;;;16.87;11.53;;;-0.60;99.90;;;;;;5096135;28;20204;-59
2022/03/03 04:27:08;;;;;;;17.83;12.47;;;-0.50;99.90;;;;;;5096111;28;20207;-58
2022/03/03 04:29:35;;;;;;;16.97;12.13;;;-0.50;99.90;;;;;;5096286;28;20285;-58
2022/03/03 04:32:01;;;;;;;18.83;12.00;;;-0.30;99.90;;;;;;5096019;28;20208;-59
2022/03/03 04:34:28;;;;;;;19.17;12.70;;;-0.20;99.90;;;;;;5095969;28;20204;-58
2022/03/03 04:36:55;;;;;;;17.60;12.27;;;-0.20;99.90;;;;;;5096033;28;20204;-59
2022/03/03 04:39:23;;;;;;;17.27;12.33;;;-0.10;99.90;;;;;;5095914;28;20227;-58
2022/03/03 04:41:50;;;;;;;17.17;11.73;;;-0.10;99.90;;;;;;5095659;28;20610;-58
2022/03/03 04:44:16;;;;;;;19.97;12.37;;;0.00;99.90;;;;;;5095761;28;20200;-58
2022/03/03 04:46:43;;;;;;;16.07;12.27;;;0.00;99.90;;;;;;5095641;28;20668;-58
2022/03/03 04:49:10;;;;;;;17.67;12.03;;;0.00;99.90;;;;;;5095550;28;20231;-58
2022/03/03 04:51:39;;;;;;;15.90;11.37;;;0.10;99.90;;;;;;5095661;28;20235;-59
2022/03/03 04:54:07;;;;;;;18.70;11.60;;;0.10;99.90;;;;;;5095460;28;20254;-58
2022/03/03 04:56:36;;;;;;;17.63;12.67;;;-0.10;99.90;;;;;;5095639;28;20270;-58
2022/03/03 04:59:03;;;;;;;14.70;11.33;;;-0.20;99.90;;;;;;5095714;28;20497;-59
2022/03/03 05:01:29;;;;;;;16.93;12.10;;;-0.10;99.90;;;;;;5095039;28;20572;-58
2022/03/03 05:03:56;;;;;;;19.40;12.50;;;-0.10;99.90;;;;;;5095781;28;20261;-58
2022/03/03 05:06:23;;;;;;;17.87;11.90;;;-0.10;99.90;;;;;;5095466;28;20208;-59
2022/03/03 05:08:50;;;;;;;14.83;11.20;;;-0.10;99.90;;;;;;5095285;28;20572;-58
2022/03/03 05:11:16;;;;;;;15.50;11.70;;;-0.10;99.90;;;;;;5095119;28;20277;-59
2022/03/03 05:13:44;;;;;;;19.03;13.00;;;-0.10;99.90;;;;;;5095300;28;20201;-57
2022/03/03 05:16:11;;;;;;;17.87;12.07;;;-0.20;99.90;;;;;;5095004;28;20575;-57
2022/03/03 05:18:38;;;;;;;16.70;12.33;;;-0.20;99.90;;;;;;5095313;28;20238;-58
2022/03/03 05:21:05;;;;;;;20.10;11.90;;;-0.10;99.90;;;;;;5095073;28;20238;-58
2022/03/03 05:23:32;;;;;;;24.00;11.70;;;0.00;99.90;;;;;;5095486;28;20250;-58
2022/03/03 05:25:58;;;;;;;18.50;12.90;;;0.00;99.90;;;;;;5094348;28;20231;-58
2022/03/03 05:28:26;;;;;;;16.40;12.03;;;0.00;99.90;;;;;;5095125;28;20235;-58
2022/03/03 05:30:54;;;;;;;17.17;12.70;;;0.00;99.90;;;;;;5094704;28;20303;-59
2022/03/03 05:33:21;;;;;;;16.90;11.60;;;0.00;99.90;;;;;;5095020;28;20619;-59
2022/03/03 05:35:49;;;;;;;20.23;12.33;;;0.00;99.90;;;;;;5094741;28;20224;-58
2022/03/03 05:38:16;;;;;;;20.17;12.33;;;0.00;99.90;;;;;;5094822;28;20223;-58
2022/03/03 05:40:42;;;;;;;19.57;12.13;;;0.10;99.90;;;;;;5094902;28;20683;-58
2022/03/03 05:43:10;;;;;;;17.53;12.13;;;0.10;99.90;;;;;;5094492;28;20208;-58
2022/03/03 05:45:37;;;;;;;17.70;12.47;;;0.10;99.90;;;;;;5094701;28;20722;-58
2022/03/03 05:48:07;;;;;;;18.63;12.30;;;0.20;99.90;;;;;;5094620;28;20224;-59
2022/03/03 05:50:34;;;;;;;18.20;13.40;;;0.20;99.90;;;;;;5095130;28;20204;-59
2022/03/03 05:53:01;;;;;;;22.47;14.03;;;0.10;99.90;;;;;;5094440;28;20200;-58
2022/03/03 05:55:31;;;;;;;24.47;15.77;;;0.20;99.90;;;;;;5094409;28;20224;-59
2022/03/03 05:57:59;;;;;;;30.43;15.97;;;0.20;99.90;;;;;;5094452;28;20228;-59
2022/03/03 06:00:28;;;;;;;25.97;16.23;;;0.20;99.90;;;;;;5094327;28;20211;-58
2022/03/03 06:02:56;;;;;;;16.90;12.10;;;0.20;99.90;;;;;;5094270;28;20212;-59
2022/03/03 06:05:26;;;;;;;17.70;13.07;;;0.30;99.90;;;;;;5094310;28;20205;-59
2022/03/03 06:07:55;;;;;;;16.43;11.97;;;0.30;99.90;;;;;;5094065;28;20269;-57
2022/03/03 06:10:23;;;;;;;26.73;17.13;;;0.30;99.90;;;;;;5094322;28;20216;-58
2022/03/03 06:12:54;;;;;;;20.73;13.00;;;0.40;99.90;;;;;;5094060;28;20228;-58
2022/03/03 06:15:23;;;;;;;19.97;13.37;;;0.40;99.90;;;;;;5094229;28;20695;-58
2022/03/03 06:17:50;;;;;;;20.53;13.93;;;0.50;99.90;;;;;;5094148;28;20236;-59
2022/03/03 06:20:18;;;;;;;23.93;12.10;;;0.50;99.90;;;;;;5094391;28;20203;-59
2022/03/03 06:22:46;;;;;;;19.87;13.37;;;0.60;99.90;;;;;;5093817;28;20204;-58
2022/03/03 06:25:13;;;;;;;22.60;12.73;;;0.60;99.90;;;;;;5094300;28;20235;-57
2022/03/03 06:27:40;;;;;;;18.43;12.73;;;0.60;99.90;;;;;;5093863;28;20208;-58
2022/03/03 06:30:08;;;;;;;23.10;13.07;;;0.70;99.90;;;;;;5093880;28;20201;-58
2022/03/03 06:32:35;;;;;;;20.33;12.37;;;0.80;99.90;;;;;;5094269;28;20204;-58
2022/03/03 06:35:03;;;;;;;17.60;12.60;;;0.90;99.90;;;;;;5093676;28;20200;-58
2022/03/03 06:37:29;;;;;;;24.10;12.47;;;1.00;99.90;;;;;;5093714;28;20242;-58
2022/03/03 06:39:58;;;;;;;19.93;13.03;;;1.20;99.90;;;;;;5094295;28;20212;-58
2022/03/03 06:42:26;;;;;;;20.60;12.47;;;1.30;99.90;;;;;;5093845;28;20729;-58
2022/03/03 06:44:54;;;;;;;16.27;11.83;;;1.40;99.90;;;;;;5093831;28;20215;-58
2022/03/03 06:47:20;;;;;;;16.67;11.47;;;1.50;99.90;;;;;;5093598;28;20233;-59
2022/03/03 06:49:48;;;;;;;18.07;12.70;;;1.70;99.90;;;;;;5093630;28;20613;-59
2022/03/03 06:52:16;;;;;;;20.23;11.87;;;2.20;99.90;;;;;;5093283;28;20594;-59
2022/03/03 06:54:45;;;;;;;19.27;11.67;;;2.90;99.80;;;;;;5094266;28;20221;-59
2022/03/03 06:57:15;;;;;;;19.87;11.50;;;3.40;98.80;;;;;;5094504;28;20259;-58
2022/03/03 06:59:43;;;;;;;17.60;10.80;;;3.70;97.90;;;;;;5093796;28;20228;-58
2022/03/03 07:02:10;;;;;;;18.60;11.60;;;3.90;97.70;;;;;;5094381;28;20204;-60
2022/03/03 07:04:37;;;;;;;14.43;10.77;;;4.20;97.30;;;;;;5094031;28;20368;-60
2022/03/03 07:07:04;;;;;;;16.20;11.20;;;4.20;97.20;;;;;;5093079;28;20604;-61
2022/03/03 07:09:31;;;;;;;15.63;11.07;;;4.40;97.40;;;;;;5092867;28;20221;-61
2022/03/03 07:11:59;;;;;;;16.57;11.53;;;5.10;96.40;;;;;;5092781;28;20261;-61
2022/03/03 07:14:28;;;;;;;17.37;11.93;;;5.60;95.90;;;;;;5092733;28;20219;-61
2022/03/03 07:17:01;;;;;;;12.97;11.17;;;6.60;95.50;;;;;;5092803;28;20242;-62
2022/03/03 07:19:50;;;;;;;16.37;11.50;;;7.80;93.30;;;;;;5092542;28;20731;-61
2022/03/03 07:22:20;;;;;;;16.73;11.57;;;8.60;91.80;;;;;;5092521;28;20303;-62
2022/03/03 07:24:51;;;;;;;16.10;12.13;;;9.20;90.80;;;;;;5092734;28;20204;-62
2022/03/03 07:27:20;;;;;;;17.90;12.03;;;9.90;90.00;;;;;;5092464;28;20204;-62
2022/03/03 07:29:55;;;;;;;21.63;13.80;;;10.70;85.00;;;;;;5092647;28;20235;-61
2022/03/03 07:32:34;;;;;;;15.57;12.10;;;11.30;83.00;;;;;;5092333;28;20553;-60
2022/03/03 07:35:05;;;;;;;21.13;14.63;;;11.70;80.40;;;;;;5093927;28;20263;-63
2022/03/03 07:37:36;;;;;;;16.13;12.33;;;12.00;80.50;;;;;;5094520;28;20260;-63
2022/03/03 07:40:06;;;;;;;14.57;11.13;;;12.40;78.30;;;;;;5094799;28;20208;-63
2022/03/03 07:42:33;;;;;;;14.73;11.60;;;12.40;78.00;;;;;;5094840;28;20240;-62
2022/03/03 07:45:03;;;;;;;17.53;11.63;;;12.40;77.60;;;;;;5094912;28;20211;-63
2022/03/03 07:47:30;;;;;;;18.17;13.07;;;12.00;76.30;;;;;;5094749;28;20204;-63
2022/03/03 07:49:58;;;;;;;16.40;11.70;;;10.80;78.40;;;;;;5094497;28;20231;-62
2022/03/03 07:52:26;;;;;;;20.80;13.30;;;10.00;80.70;;;;;;5094367;28;20204;-60
2022/03/03 07:54:52;;;;;;;19.27;12.87;;;9.30;83.10;;;;;;5095003;28;20208;-63
2022/03/03 07:57:22;;;;;;;18.40;13.30;;;8.70;84.60;;;;;;5095358;28;20228;-61
2022/03/03 07:59:54;;;;;;;18.07;13.50;;;8.30;85.50;;;;;;5091744;28;20224;-64
2022/03/03 08:02:24;;;;;;;20.77;13.83;;;7.90;86.90;;;;;;5091920;28;20204;-63
2022/03/03 08:04:52;;;;;;;20.30;13.47;;;7.50;88.00;;;;;;5092064;28;20591;-64
2022/03/03 08:07:20;;;;;;;19.30;14.03;;;7.30;89.20;;;;;;5092305;28;20224;-63
2022/03/03 08:09:48;;;;;;;16.00;12.70;;;7.00;90.10;;;;;;5092212;28;20231;-65
2022/03/03 08:12:17;;;;;;;17.57;12.47;;;6.20;90.80;;;;;;5092346;28;20486;-65
2022/03/03 08:14:44;;;;;;;19.63;13.10;;;5.60;92.00;;;;;;5093926;28;20226;-64
2022/03/03 08:17:14;;;;;;;18.60;13.07;;;5.30;92.80;;;;;;5092943;28;20220;-63
2022/03/03 08:19:43;;;;;;;16.37;11.70;;;5.30;93.10;;;;;;5092242;28;20327;-64
2022/03/03 08:22:10;;;;;;;17.33;12.33;;;5.40;92.80;;;;;;5092135;28;20265;-65
2022/03/03 08:24:42;;;;;;;15.23;12.10;;;5.40;92.90;;;;;;5092332;28;20211;-64
2022/03/03 08:27:10;;;;;;;19.27;11.97;;;5.50;92.90;;;;;;5092293;28;20208;-61
2022/03/03 08:29:36;;;;;;;20.33;13.33;;;5.50;92.90;;;;;;5091943;28;20236;-61
2022/03/03 08:32:06;;;;;;;18.53;12.53;;;5.60;92.90;;;;;;5091523;28;20212;-62
2022/03/03 08:34:42;;;;;;;17.73;12.33;;;5.60;93.10;;;;;;5091979;28;20581;-63
2022/03/03 08:37:18;;;;;;;17.43;12.27;;;5.70;93.10;;;;;;5091912;28;20699;-64
2022/03/03 08:39:47;;;;;;;16.70;12.87;;;5.70;93.20;;;;;;5091906;28;20258;-62
2022/03/03 08:42:23;;;;;;;18.03;13.03;;;5.90;93.30;;;;;;5091514;28;20571;-65
2022/03/03 08:44:53;;;;;;;15.57;12.00;;;6.00;93.10;;;;;;5092387;28;20203;-62
2022/03/03 08:47:22;;;;;;;14.83;12.57;;;6.20;93.00;;;;;;5091701;28;20686;-63
2022/03/03 08:49:58;;;;;;;14.83;11.83;;;6.30;92.80;;;;;;5092105;28;20251;-63
2022/03/03 08:52:27;;;;;;;18.90;12.20;;;6.50;92.20;;;;;;5091773;28;20265;-62
2022/03/03 08:54:54;;;;;;;17.37;11.80;;;6.60;91.40;;;;;;5091575;28;20227;-62
2022/03/03 08:57:21;;;;;;;15.90;12.67;;;6.70;91.50;;;;;;5088695;28;20261;-64
2022/03/03 08:59:47;;;;;;;15.67;12.17;;;6.70;91.40;;;;;;5090985;28;20220;-63
2022/03/03 09:02:17;;;;;;;18.10;12.83;;;6.80;91.50;;;;;;5092844;28;20212;-64
2022/03/03 09:04:44;;;;;;;17.17;12.13;;;6.90;91.90;;;;;;5094832;28;20219;-62
2022/03/03 09:07:11;;;;;;;17.42;13.07;;;6.90;92.00;;;;;;5091490;28;20461;-63
2022/03/03 09:09:39;;;;;;;15.97;11.10;;;6.90;91.80;;;;;;5095542;28;20231;-60
2022/03/03 09:12:06;;;;;;;16.77;12.33;;;7.00;91.50;;;;;;5092575;28;20262;-61
2022/03/03 09:14:33;;;;;;;16.33;12.70;;;7.20;91.20;;;;;;5095456;28;20204;-63
2022/03/03 09:17:00;;;;;;;18.73;12.83;;;7.20;91.30;;;;;;5095180;28;20228;-62
2022/03/03 09:19:27;;;;;;;16.23;12.13;;;7.30;91.20;;;;;;5096105;28;20263;-60
2022/03/03 09:21:54;;;;;;;18.30;12.47;;;7.30;91.00;;;;;;5094617;28;20295;-61
2022/03/03 09:24:20;;;;;;;18.53;12.47;;;7.40;91.00;;;;;;5095480;28;20215;-61
2022/03/03 09:26:48;;;;;;;14.00;12.00;;;7.60;91.00;;;;;;5095262;28;20203;-62
2022/03/03 09:29:17;;;;;;;17.40;12.90;;;7.70;90.30;;;;;;5085804;28;20224;-62
2022/03/03 09:31:44;;;;;;;16.03;12.23;;;7.70;90.50;;;;;;5094567;28;20193;-62
2022/03/03 09:34:11;;;;;;;14.37;11.77;;;7.80;90.50;;;;;;5095251;28;20204;-63
2022/03/03 09:36:37;;;;;;;13.43;12.03;;;8.00;90.50;;;;;;5094825;28;20605;-61
2022/03/03 09:39:05;;;;;;;18.47;12.53;;;8.10;90.20;;;;;;5095153;28;20227;-60
2022/03/03 09:41:31;;;;;;;14.83;11.83;;;8.30;90.10;;;;;;5094957;28;20200;-60
2022/03/03 09:44:00;;;;;;;15.57;11.50;;;8.50;90.30;;;;;;5095335;28;20231;-60
2022/03/03 09:46:26;;;;;;;13.97;11.80;;;8.70;89.90;;;;;;5094941;28;20723;-60
2022/03/03 09:48:53;;;;;;;15.47;11.80;;;8.80;88.40;;;;;;5094681;28;20322;-61
2022/03/03 09:51:20;;;;;;;16.37;12.90;;;8.80;88.40;;;;;;5094872;28;20216;-61
2022/03/03 09:53:49;;;;;;;16.93;12.83;;;8.70;88.20;;;;;;5094694;28;20708;-59
2022/03/03 09:56:16;;;;;;;15.60;11.73;;;8.70;88.60;;;;;;5094782;28;20688;-62
2022/03/03 09:58:43;;;;;;;14.77;12.33;;;8.80;88.60;;;;;;5094454;28;20232;-60
2022/03/03 10:01:11;;;;;;;16.27;12.47;;;8.70;88.60;;;;;;5095214;28;20200;-61
2022/03/03 10:03:38;;;;;;;16.03;12.93;;;8.60;89.50;;;;;;5095460;28;20200;-63
2022/03/03 10:06:06;;;;;;;16.20;11.93;;;8.60;90.00;;;;;;5096099;28;20613;-61
2022/03/03 10:08:32;;;;;;;17.17;12.20;;;8.70;90.10;;;;;;5092051;28;20260;-60
2022/03/03 10:11:01;;;;;;;16.00;11.77;;;8.80;88.80;;;;;;5094262;28;20204;-60
2022/03/03 10:13:44;;;;;;;15.43;11.20;;;9.00;87.40;;;;;;5094523;28;20204;-59
2022/03/03 10:16:12;;;;;;;13.87;11.37;;;9.10;86.00;;;;;;5095142;28;20242;-59
2022/03/03 10:18:38;;;;;;;16.90;10.90;;;9.30;86.10;;;;;;5094181;28;20240;-60
2022/03/03 10:21:06;;;;;;;15.27;11.43;;;9.50;85.60;;;;;;5094605;28;20211;-59
2022/03/03 10:23:36;;;;;;;16.57;11.10;;;9.60;83.90;;;;;;5094113;28;20866;-59
2022/03/03 10:26:05;;;;;;;13.00;10.70;;;9.80;84.10;;;;;;5094754;28;20203;-60
2022/03/03 10:28:34;;;;;;;14.23;11.20;;;10.00;82.10;;;;;;5093994;28;20712;-59
2022/03/03 10:31:03;;;;;;;16.27;11.07;;;10.10;79.80;;;;;;5093809;28;20262;-60
2022/03/03 10:33:33;;;;;;;15.47;11.10;;;10.10;79.10;;;;;;5094270;28;20208;-62
2022/03/03 10:36:09;;;;;;;14.63;11.80;;;10.00;79.60;;;;;;5094420;28;20243;-62
2022/03/03 10:38:49;;;;;;;19.43;11.73;;;10.10;79.90;;;;;;5093970;28;20262;-60
2022/03/03 10:41:33;;;;;;;16.17;11.37;;;10.20;80.00;;;;;;5094063;28;20212;-59
2022/03/03 10:44:01;;;;;;;15.87;11.87;;;10.40;79.50;;;;;;5093836;28;20212;-60
2022/03/03 10:46:28;;;;;;;15.07;11.10;;;10.60;78.70;;;;;;5094203;28;20295;-60
2022/03/03 10:48:56;;;;;;;13.93;11.17;;;10.70;77.70;;;;;;5093462;28;20659;-58
2022/03/03 10:51:25;;;;;;;16.93;11.80;;;10.50;78.10;;;;;;5093443;28;20261;-58
2022/03/03 10:53:56;;;;;;;17.03;12.43;;;10.30;79.00;;;;;;5094022;28;20269;-59
2022/03/03 10:56:22;;;;;;;14.50;11.77;;;10.40;78.20;;;;;;5093804;28;20204;-58
2022/03/03 10:58:54;;;;;;;16.57;11.57;;;10.40;78.00;;;;;;5093911;28;20220;-58
2022/03/03 11:01:23;;;;;;;18.23;12.27;;;10.20;77.90;;;;;;5093380;28;20716;-59
2022/03/03 11:03:50;;;;;;;16.27;11.20;;;10.30;78.00;;;;;;5093631;28;20204;-59
2022/03/03 11:06:24;;;;;;;15.20;11.90;;;10.40;77.40;;;;;;5093442;28;20208;-59
2022/03/03 11:08:53;;;;;;;16.10;12.50;;;10.60;77.10;;;;;;5093606;28;20700;-58
2022/03/03 11:11:21;;;;;;;14.70;11.50;;;10.80;77.10;;;;;;5093620;28;20220;-59
2022/03/03 11:13:49;;;;;;;16.53;11.60;;;11.10;76.40;;;;;;5093367;28;20208;-59
2022/03/03 11:16:17;;;;;;;15.13;12.27;;;11.40;75.80;;;;;;5093566;28;20223;-62
2022/03/03 11:18:45;;;;;;;17.30;13.20;;;11.40;74.50;;;;;;5093742;28;20719;-61
2022/03/03 11:21:12;;;;;;;18.03;12.23;;;11.60;74.30;;;;;;5093652;28;20680;-63
2022/03/03 11:23:44;;;;;;;19.20;12.80;;;11.70;73.80;;;;;;5093680;28;20204;-60
2022/03/03 11:26:19;;;;;;;19.63;12.90;;;11.80;73.50;;;;;;5093199;28;20208;-59
2022/03/03 11:28:57;;;;;;;17.37;12.33;;;12.00;72.70;;;;;;5093132;28;20310;-60
2022/03/03 11:31:30;;;;;;;14.50;11.80;;;12.20;72.70;;;;;;5093281;28;20212;-65
2022/03/03 11:34:23;;;;;;;17.50;12.37;;;12.10;72.90;;;;;;5094560;28;20215;-65
2022/03/03 11:36:51;;;;;;;14.90;12.33;;;12.20;72.50;;;;;;5094374;28;20308;-62
2022/03/03 11:39:39;;;;;;;16.27;11.53;;;12.00;72.70;;;;;;5094012;28;20228;-62
2022/03/03 11:42:25;;;;;;;16.10;11.77;;;12.10;72.40;;;;;;5093334;28;20200;-62
2022/03/03 11:44:54;;;;;;;14.73;12.17;;;11.80;74.00;;;;;;5093830;28;20671;-62
2022/03/03 11:47:23;;;;;;;15.73;12.43;;;11.70;74.00;;;;;;5094169;28;20208;-63
2022/03/03 11:50:16;;;;;;;15.53;12.63;;;11.70;74.10;;;;;;5094339;28;20310;-63
2022/03/03 11:52:44;;;;;;;17.17;12.90;;;11.70;73.80;;;;;;5092977;28;20204;-65
2022/03/03 11:55:43;;;;;;;13.13;11.40;;;11.80;74.20;;;;;;5093206;28;20204;-64
2022/03/03 11:58:12;;;;;;;17.50;13.00;;;11.90;72.70;;;;;;5092745;28;20228;-61
2022/03/03 12:00:41;;;;;;;18.77;12.07;;;11.80;73.40;;;;;;5092507;28;20204;-61
2022/03/03 12:03:11;;;;;;;15.97;12.40;;;11.80;73.40;;;;;;5092597;28;20254;-62
2022/03/03 12:05:43;;;;;;;17.10;12.80;;;11.80;73.70;;;;;;5092338;28;20212;-63
2022/03/03 12:08:35;;;;;;;17.17;12.80;;;11.90;73.80;;;;;;5092321;28;20231;-63
2022/03/03 12:11:06;;;;;;;15.53;12.53;;;12.00;70.40;;;;;;5092881;28;20311;-63
2022/03/03 12:13:34;;;;;;;18.63;14.07;;;11.90;71.40;;;;;;5092610;28;20204;-63
2022/03/03 12:16:24;;;;;;;16.97;12.80;;;12.10;72.70;;;;;;5093086;28;20675;-63
2022/03/03 12:19:04;;;;;;;17.43;13.37;;;12.40;73.20;;;;;;5092347;28;20231;-63
2022/03/03 12:21:33;;;;;;;20.10;13.93;;;12.60;72.90;;;;;;5092682;28;20208;-63
2022/03/03 12:24:31;;;;;;;15.97;13.03;;;12.70;72.50;;;;;;5092501;28;20204;-63
2022/03/03 12:27:01;;;;;;;19.63;12.93;;;12.90;72.40;;;;;;5092524;28;20265;-62
2022/03/03 12:29:34;;;;;;;15.77;13.07;;;13.00;72.70;;;;;;5092206;28;20240;-61
2022/03/03 12:32:42;;;;;;;17.53;13.77;;;13.10;72.60;;;;;;5092438;28;20253;-63
2022/03/03 12:35:24;;;;;;;19.27;14.10;;;13.00;72.90;;;;;;5093209;28;20199;-64
2022/03/03 12:37:51;;;;;;;17.63;13.83;;;12.80;72.70;;;;;;5095931;28;20232;-63
2022/03/03 12:40:21;;;;;;;21.37;14.20;;;12.60;73.30;;;;;;5096849;28;20295;-63
2022/03/03 12:42:48;;;;;;;16.53;13.80;;;12.70;73.20;;;;;;5096117;28;20212;-62